Colborne, Canada
Current Conditions -  °F | °C
As of 7:00 PM on Friday 19 Dec 2014 (Local Time) from CYTR Reporting Station
Few Clouds Few Clouds  
Wind Chill: 15°   Ceiling: Unl
Heat Index: 23°   Visibility: 15mi
Dew Point: 18°   Wind: 7mph
Humidity: 80%   Direction: 350°N
Pressure: 30.24"   Gusts: NA
Location:  44.02°N, 77.88°W
Report Text: CYTR 200000Z 35006KT 15SM FEW085 M05/M08 A3024 RMK AC2 SLP246
Loading
Personal Weather Stations






























Interactive Weather Map New forecast layout! Learn more

10-Day Weather Forecast

Advertisements
Track Severe Weather on mobile